Time;durP1;ratioP1;P1;durP2;ratioP2;P2;SDS_P1;SDS_P2;PMS_P1;PMS_P2;Temp;Humidity;BMP_temperature;BMP_pressure;BME280_temperature;BME280_humidity;BME280_pressure;Samples;Min_cycle;Max_cycle;Signal;HPM_P1;HPM_P2
2023/05/11 00:01:05;;;;;;;29.52;22.38;;;16.40;99.90;;;;;;5032347;28;20081;-70
2023/05/11 00:03:31;;;;;;;32.78;22.73;;;16.40;99.90;;;;;;5032278;28;20021;-72
2023/05/11 00:05:57;;;;;;;31.00;21.80;;;16.40;99.90;;;;;;5032375;28;20470;-70
2023/05/11 00:08:23;;;;;;;28.65;20.73;;;16.40;99.90;;;;;;5032575;28;20036;-70
2023/05/11 00:10:49;;;;;;;29.38;19.23;;;16.40;99.90;;;;;;5031270;28;20034;-70
2023/05/11 00:13:15;;;;;;;24.48;19.40;;;16.40;99.90;;;;;;5032473;28;20029;-70
2023/05/11 00:15:40;;;;;;;28.13;17.92;;;16.40;99.90;;;;;;5031175;28;20032;-70
2023/05/11 00:18:06;;;;;;;23.08;16.75;;;16.40;99.90;;;;;;5031837;28;20484;-70
2023/05/11 00:20:32;;;;;;;25.33;18.13;;;16.40;99.90;;;;;;5032493;28;20026;-70
2023/05/11 00:22:58;;;;;;;24.60;17.30;;;16.40;99.90;;;;;;5032351;28;20471;-69
2023/05/11 00:25:24;;;;;;;20.88;16.02;;;16.40;99.90;;;;;;5032456;28;20104;-70
2023/05/11 00:27:49;;;;;;;24.70;16.13;;;16.40;99.90;;;;;;5031983;28;20037;-70
2023/05/11 00:30:15;;;;;;;24.80;16.48;;;16.40;99.90;;;;;;5031996;28;20040;-70
2023/05/11 00:32:44;;;;;;;25.08;16.58;;;16.40;99.90;;;;;;5032020;28;20022;-69
2023/05/11 00:35:11;;;;;;;26.50;17.33;;;16.40;99.90;;;;;;5034110;28;20072;-70
2023/05/11 00:37:39;;;;;;;23.90;17.30;;;16.40;99.90;;;;;;5035560;28;20067;-69
2023/05/11 00:40:06;;;;;;;24.17;17.05;;;16.40;99.90;;;;;;5035879;28;20033;-71
2023/05/11 00:42:32;;;;;;;26.35;17.40;;;16.40;99.90;;;;;;5035608;28;20017;-70
2023/05/11 00:44:58;;;;;;;20.73;14.85;;;16.30;99.90;;;;;;5035808;28;20029;-70
2023/05/11 00:47:24;;;;;;;24.58;15.45;;;16.30;99.90;;;;;;5035147;28;20014;-70
2023/05/11 00:49:52;;;;;;;19.90;14.88;;;16.30;99.90;;;;;;5035841;28;20029;-70
2023/05/11 00:52:18;;;;;;;20.88;12.45;;;16.30;99.90;;;;;;5035723;28;20387;-69
2023/05/11 00:54:44;;;;;;;19.15;12.25;;;16.30;99.90;;;;;;5035570;28;20467;-70
2023/05/11 00:57:10;;;;;;;18.00;11.45;;;16.30;99.90;;;;;;5035610;28;20037;-70
2023/05/11 00:59:35;;;;;;;21.05;11.13;;;16.30;99.90;;;;;;5035345;28;20025;-70
2023/05/11 01:02:03;;;;;;;19.80;10.52;;;16.30;99.90;;;;;;5035116;28;20501;-70
2023/05/11 01:04:29;;;;;;;18.73;9.88;;;16.20;99.90;;;;;;5035430;28;20025;-70
2023/05/11 01:07:20;;;;;;;17.17;9.85;;;16.30;99.90;;;;;;5035509;28;20088;-70
2023/05/11 01:10:22;;;;;;;16.38;9.55;;;16.20;99.90;;;;;;5035738;28;20045;-70
2023/05/11 01:13:06;;;;;;;15.95;8.00;;;16.30;99.90;;;;;;5035199;28;20028;-70
2023/05/11 01:15:48;;;;;;;13.90;7.50;;;16.20;99.90;;;;;;5034805;28;20051;-70
2023/05/11 01:18:20;;;;;;;16.23;7.55;;;16.20;99.90;;;;;;5035109;28;20045;-70
2023/05/11 01:20:47;;;;;;;18.17;8.70;;;16.10;99.90;;;;;;5035044;28;20501;-70
2023/05/11 01:23:39;;;;;;;20.50;9.60;;;16.10;99.90;;;;;;5035053;28;20475;-70
2023/05/11 01:26:42;;;;;;;15.63;7.88;;;16.10;99.90;;;;;;5034821;28;20028;-70
2023/05/11 01:29:26;;;;;;;;;;;16.10;99.90;;;;;;5035285;28;20045;-70
2023/05/11 01:31:55;;;;;;;12.35;6.95;;;16.10;99.90;;;;;;5034785;28;19906;-70
2023/05/11 01:34:30;;;;;;;12.95;7.45;;;16.20;99.90;;;;;;5034825;28;20021;-69
2023/05/11 01:36:59;;;;;;;14.85;7.07;;;16.20;99.90;;;;;;5034798;28;20441;-70
2023/05/11 01:39:36;;;;;;;15.68;6.50;;;16.10;99.90;;;;;;5034624;28;20040;-70
2023/05/11 01:42:08;;;;;;;14.38;7.45;;;16.10;99.90;;;;;;5034581;28;20033;-70
2023/05/11 01:44:38;;;;;;;16.65;6.82;;;16.10;99.90;;;;;;5034296;28;20044;-70
2023/05/11 01:47:05;;;;;;;14.77;6.80;;;16.00;99.90;;;;;;5034789;28;20021;-70
2023/05/11 01:49:37;;;;;;;16.00;7.25;;;16.10;99.90;;;;;;5034550;28;20029;-70
2023/05/11 01:52:04;;;;;;;;;;;16.00;99.90;;;;;;5035108;28;20021;-69
2023/05/11 01:54:31;;;;;;;14.35;6.30;;;16.00;99.90;;;;;;5034464;28;19905;-70
2023/05/11 01:56:59;;;;;;;13.57;6.55;;;16.00;99.90;;;;;;5034427;28;20203;-69
2023/05/11 01:59:26;;;;;;;16.92;6.82;;;15.90;99.90;;;;;;5033990;28;20079;-70
2023/05/11 02:01:53;;;;;;;14.07;6.22;;;16.00;99.90;;;;;;5034312;28;20498;-69
2023/05/11 02:04:20;;;;;;;19.85;6.88;;;16.00;99.90;;;;;;5034160;28;20045;-70
2023/05/11 02:06:48;;;;;;;16.92;6.32;;;16.00;99.90;;;;;;5034308;28;20028;-72
2023/05/11 02:09:16;;;;;;;12.00;6.45;;;16.00;99.90;;;;;;5034073;28;20017;-69
2023/05/11 02:11:44;;;;;;;16.75;6.72;;;16.00;99.90;;;;;;5034192;28;20037;-69
2023/05/11 02:14:11;;;;;;;14.38;6.53;;;15.90;99.90;;;;;;5033848;28;20101;-69
2023/05/11 02:16:37;;;;;;;12.95;5.97;;;15.90;99.90;;;;;;5033993;28;20033;-72
2023/05/11 02:19:06;;;;;;;13.40;6.07;;;16.00;99.90;;;;;;5033882;28;20041;-71
2023/05/11 02:21:32;;;;;;;14.00;6.78;;;16.00;99.90;;;;;;5033860;28;20071;-71
2023/05/11 02:24:02;;;;;;;13.50;6.05;;;15.90;99.90;;;;;;5033771;28;20368;-70
2023/05/11 02:26:27;;;;;;;10.70;6.05;;;15.90;99.90;;;;;;5033745;28;20094;-71
2023/05/11 02:28:54;;;;;;;13.85;6.18;;;15.80;99.90;;;;;;5033570;28;20530;-70
2023/05/11 02:31:31;;;;;;;14.27;5.80;;;15.80;99.90;;;;;;5033527;28;20045;-70
2023/05/11 02:34:08;;;;;;;15.52;5.75;;;15.70;99.90;;;;;;5033777;28;20033;-70
2023/05/11 02:36:36;;;;;;;15.75;6.40;;;15.70;99.90;;;;;;5032204;28;20017;-70
2023/05/11 02:39:07;;;;;;;14.38;5.93;;;15.70;99.90;;;;;;5033582;28;20116;-71
2023/05/11 02:41:38;;;;;;;13.63;6.38;;;15.70;99.90;;;;;;5033498;28;20032;-71
2023/05/11 02:44:06;;;;;;;16.45;5.57;;;15.70;99.90;;;;;;5033287;28;20017;-71
2023/05/11 02:46:35;;;;;;;13.32;5.82;;;15.70;99.90;;;;;;5033363;28;20030;-71
2023/05/11 02:49:06;;;;;;;15.10;5.60;;;15.60;99.90;;;;;;5033572;28;20021;-71
2023/05/11 02:51:35;;;;;;;12.57;5.53;;;15.70;99.90;;;;;;5033367;28;20029;-71
2023/05/11 02:54:02;;;;;;;15.63;5.25;;;15.70;99.90;;;;;;5033404;28;20052;-71
2023/05/11 02:56:29;;;;;;;16.77;5.45;;;15.70;99.90;;;;;;5032811;28;20040;-71
2023/05/11 02:58:54;;;;;;;13.57;6.03;;;15.60;99.90;;;;;;5032909;28;20041;-70
2023/05/11 03:01:20;;;;;;;15.98;6.38;;;15.70;99.90;;;;;;5033148;28;20044;-70
2023/05/11 03:03:46;;;;;;;13.77;5.72;;;15.60;99.90;;;;;;5033180;28;20516;-70
2023/05/11 03:06:12;;;;;;;14.45;6.57;;;15.70;99.90;;;;;;5033157;28;20060;-70
2023/05/11 03:08:39;;;;;;;12.07;5.57;;;15.60;99.90;;;;;;5033218;28;20017;-71
2023/05/11 03:11:05;;;;;;;12.05;5.57;;;15.70;99.90;;;;;;5031526;28;20108;-71
2023/05/11 03:13:31;;;;;;;14.60;6.18;;;15.70;99.90;;;;;;5031866;28;20067;-70
2023/05/11 03:15:58;;;;;;;13.20;5.55;;;15.60;99.90;;;;;;5032938;28;20018;-71
2023/05/11 03:18:25;;;;;;;15.55;5.75;;;15.60;99.90;;;;;;5033292;28;20179;-70
2023/05/11 03:20:50;;;;;;;13.85;5.97;;;15.60;99.90;;;;;;5032927;28;20439;-70
2023/05/11 03:23:17;;;;;;;12.57;5.88;;;15.50;99.90;;;;;;5033084;28;20099;-71
2023/05/11 03:25:44;;;;;;;16.55;6.00;;;15.50;99.90;;;;;;5032377;28;20364;-71
2023/05/11 03:28:11;;;;;;;15.25;6.18;;;15.60;99.90;;;;;;5032838;28;20074;-71
2023/05/11 03:30:39;;;;;;;12.68;5.85;;;15.50;99.90;;;;;;5032859;28;20028;-71
2023/05/11 03:33:05;;;;;;;12.90;6.03;;;15.50;99.90;;;;;;5033031;28;20104;-71
2023/05/11 03:35:33;;;;;;;14.73;6.00;;;15.40;99.90;;;;;;5032876;28;20075;-71
2023/05/11 03:37:59;;;;;;;16.23;6.18;;;15.40;99.90;;;;;;5032565;28;20038;-71
2023/05/11 03:40:28;;;;;;;18.13;7.07;;;15.40;99.90;;;;;;5032614;28;20028;-71
2023/05/11 03:42:56;;;;;;;16.88;7.65;;;15.40;99.90;;;;;;5032812;28;20044;-70
2023/05/11 03:45:22;;;;;;;14.55;6.45;;;15.40;99.90;;;;;;5032868;28;20029;-70
2023/05/11 03:47:50;;;;;;;13.52;6.05;;;15.40;99.90;;;;;;5032604;28;20017;-71
2023/05/11 03:50:16;;;;;;;16.05;6.82;;;15.40;99.90;;;;;;5032830;28;20028;-71
2023/05/11 03:52:42;;;;;;;14.35;5.95;;;15.40;99.90;;;;;;5032494;28;20138;-71
2023/05/11 03:55:08;;;;;;;17.73;6.07;;;15.40;99.90;;;;;;5032494;28;20049;-71
2023/05/11 03:57:34;;;;;;;12.32;6.13;;;15.50;99.90;;;;;;5032435;28;20038;-71
2023/05/11 04:00:00;;;;;;;16.23;5.90;;;15.60;99.90;;;;;;5032566;28;20017;-70
2023/05/11 04:02:26;;;;;;;15.02;6.03;;;15.70;99.60;;;;;;5032533;28;20052;-71
2023/05/11 04:04:51;;;;;;;14.45;5.82;;;15.80;99.40;;;;;;5032502;28;20470;-71
2023/05/11 04:07:18;;;;;;;17.98;6.57;;;15.80;99.40;;;;;;5032537;28;20033;-72
2023/05/11 04:09:43;;;;;;;21.25;6.72;;;15.90;99.30;;;;;;5033415;28;20033;-71
2023/05/11 04:12:09;;;;;;;11.55;5.72;;;15.90;99.30;;;;;;5036326;28;20021;-72
2023/05/11 04:14:34;;;;;;;15.13;6.32;;;15.90;99.40;;;;;;5036402;28;20132;-70
2023/05/11 04:17:00;;;;;;;15.07;6.45;;;15.90;99.40;;;;;;5036127;28;20021;-72
2023/05/11 04:19:26;;;;;;;16.52;7.18;;;15.90;99.50;;;;;;5036147;28;20087;-71
2023/05/11 04:21:51;;;;;;;13.65;6.45;;;15.90;99.50;;;;;;5035985;28;20025;-71
2023/05/11 04:24:17;;;;;;;15.73;6.25;;;15.90;99.50;;;;;;5036214;28;20029;-73
2023/05/11 04:26:43;;;;;;;19.90;7.95;;;15.90;99.60;;;;;;5036034;28;20559;-71
2023/05/11 04:29:08;;;;;;;14.70;7.13;;;15.80;99.70;;;;;;5036092;28;20021;-73
2023/05/11 04:31:34;;;;;;;14.38;6.25;;;15.90;99.50;;;;;;5036139;28;20060;-73
2023/05/11 04:33:59;;;;;;;19.52;7.35;;;16.00;99.40;;;;;;5035854;28;20413;-72
2023/05/11 04:36:25;;;;;;;18.90;7.28;;;16.00;99.50;;;;;;5035996;28;20057;-71
2023/05/11 04:38:52;;;;;;;13.77;6.10;;;15.90;99.60;;;;;;5035506;28;20037;-71
2023/05/11 04:41:17;;;;;;;17.75;6.90;;;15.90;99.60;;;;;;5034531;28;20025;-71
2023/05/11 04:43:43;;;;;;;16.98;7.07;;;15.90;99.70;;;;;;5035637;28;20021;-71
2023/05/11 04:46:10;;;;;;;16.50;7.13;;;16.00;99.90;;;;;;5035874;28;20030;-71
2023/05/11 04:48:35;;;;;;;17.05;7.28;;;15.90;99.90;;;;;;5036081;28;20033;-71
2023/05/11 04:51:04;;;;;;;19.60;7.93;;;15.90;99.90;;;;;;5035753;28;20062;-72
2023/05/11 04:53:30;;;;;;;17.55;8.13;;;15.90;99.90;;;;;;5035311;28;20024;-71
2023/05/11 04:55:56;;;;;;;20.40;7.63;;;15.90;99.90;;;;;;5035486;28;20022;-71
2023/05/11 04:58:21;;;;;;;21.95;7.78;;;15.90;99.90;;;;;;5035697;28;20171;-72
2023/05/11 05:00:47;;;;;;;21.60;8.30;;;16.00;99.90;;;;;;5035565;28;20100;-73
2023/05/11 05:03:12;;;;;;;23.70;8.43;;;15.90;99.90;;;;;;5033767;28;20030;-73
2023/05/11 05:05:39;;;;;;;22.80;8.77;;;16.00;99.90;;;;;;5035387;28;20021;-71
2023/05/11 05:08:05;;;;;;;23.98;8.60;;;16.00;99.90;;;;;;5033626;28;20055;-73
2023/05/11 05:10:31;;;;;;;20.52;8.25;;;16.00;99.90;;;;;;5035350;28;20026;-71
2023/05/11 05:12:57;;;;;;;17.60;8.13;;;16.00;99.90;;;;;;5035157;28;20029;-72
2023/05/11 05:15:23;;;;;;;18.60;8.48;;;16.00;99.90;;;;;;5035254;28;20513;-72
2023/05/11 05:17:48;;;;;;;19.05;8.77;;;16.10;99.90;;;;;;5034698;28;20056;-72
2023/05/11 05:20:14;;;;;;;25.63;9.38;;;16.00;99.90;;;;;;5034685;28;20459;-72
2023/05/11 05:22:40;;;;;;;20.80;9.20;;;16.10;99.90;;;;;;5034916;28;20467;-72
2023/05/11 05:25:07;;;;;;;22.85;8.93;;;16.00;99.90;;;;;;5035206;28;20029;-70
2023/05/11 05:27:32;;;;;;;24.00;9.77;;;16.10;99.90;;;;;;5034925;28;20116;-70
2023/05/11 05:29:58;;;;;;;19.73;8.38;;;16.00;99.90;;;;;;5034771;28;20113;-72
2023/05/11 05:32:24;;;;;;;23.92;8.73;;;16.10;99.90;;;;;;5034334;28;20025;-70
2023/05/11 05:34:49;;;;;;;21.17;10.05;;;16.10;99.90;;;;;;5033745;28;20029;-70
2023/05/11 05:37:15;;;;;;;19.50;9.02;;;16.10;99.90;;;;;;5036610;28;20033;-71
2023/05/11 05:39:41;;;;;;;22.10;9.55;;;16.10;99.90;;;;;;5042844;28;20029;-71
2023/05/11 05:42:06;;;;;;;24.63;10.93;;;16.00;99.90;;;;;;5041534;28;20028;-71
2023/05/11 05:44:32;;;;;;;24.60;9.13;;;16.10;99.90;;;;;;5046078;28;20029;-71
2023/05/11 05:46:57;;;;;;;19.45;9.82;;;15.90;99.90;;;;;;5047727;28;20039;-68
2023/05/11 05:49:23;;;;;;;19.50;9.73;;;15.80;99.90;;;;;;5037464;28;20093;-68
2023/05/11 05:51:50;;;;;;;15.45;7.35;;;15.70;99.90;;;;;;5031801;28;20027;-68
2023/05/11 05:54:16;;;;;;;10.88;4.70;;;15.70;99.90;;;;;;5033820;28;20044;-68
2023/05/11 05:56:41;;;;;;;18.35;6.68;;;15.80;99.90;;;;;;5037164;28;20025;-70
2023/05/11 05:59:12;;;;;;;25.67;9.13;;;15.90;99.90;;;;;;5039537;28;20041;-69
2023/05/11 06:01:44;;;;;;;33.38;11.45;;;15.90;99.90;;;;;;5040304;28;20120;-68
2023/05/11 06:04:10;;;;;;;23.20;10.65;;;15.90;99.90;;;;;;5038301;28;20478;-68
2023/05/11 06:06:36;;;;;;;21.67;10.70;;;15.80;99.90;;;;;;5041297;28;20474;-70
2023/05/11 06:09:02;;;;;;;25.52;11.30;;;15.80;99.90;;;;;;5032748;28;20025;-69
2023/05/11 06:11:27;;;;;;;25.50;11.85;;;15.80;99.90;;;;;;5045117;28;20029;-68
2023/05/11 06:13:53;;;;;;;30.52;12.73;;;15.80;99.90;;;;;;5032421;28;20029;-69
2023/05/11 06:16:18;;;;;;;28.25;12.85;;;15.80;99.90;;;;;;5033074;28;20032;-68
2023/05/11 06:18:45;;;;;;;27.27;13.50;;;15.80;99.90;;;;;;5033233;28;20038;-68
2023/05/11 06:21:11;;;;;;;30.55;13.00;;;15.80;99.90;;;;;;5032820;28;20021;-68
2023/05/11 06:23:36;;;;;;;28.38;13.35;;;15.80;99.90;;;;;;5033999;28;20429;-68
2023/05/11 06:26:03;;;;;;;26.77;13.85;;;15.80;99.90;;;;;;5033626;28;20108;-69
2023/05/11 06:28:28;;;;;;;26.75;12.60;;;15.80;99.90;;;;;;5033610;28;20035;-69
2023/05/11 06:30:58;;;;;;;30.73;14.30;;;15.80;99.90;;;;;;5034310;28;20100;-68
2023/05/11 06:33:24;;;;;;;25.80;12.32;;;15.80;99.90;;;;;;5044935;28;20034;-68
2023/05/11 06:35:50;;;;;;;30.00;13.35;;;15.80;99.90;;;;;;5050005;28;20021;-68
2023/05/11 06:38:15;;;;;;;23.90;12.98;;;15.80;99.90;;;;;;5036349;28;20379;-68
2023/05/11 06:40:41;;;;;;;28.15;14.38;;;15.80;99.90;;;;;;5048480;28;20064;-68
2023/05/11 06:43:07;;;;;;;34.10;15.15;;;15.90;99.90;;;;;;5052467;28;20500;-67
2023/05/11 06:45:32;;;;;;;32.90;16.25;;;15.80;99.90;;;;;;5039261;28;20021;-67
2023/05/11 06:47:58;;;;;;;32.70;14.93;;;15.80;99.90;;;;;;5046712;28;20021;-68
2023/05/11 06:50:24;;;;;;;32.33;14.63;;;15.90;99.90;;;;;;5043790;28;20033;-70
2023/05/11 06:52:50;;;;;;;32.35;14.75;;;15.90;99.90;;;;;;5037634;28;20025;-73
2023/05/11 06:55:15;;;;;;;35.83;15.70;;;15.90;99.90;;;;;;5054451;28;20039;-72
2023/05/11 06:57:41;;;;;;;32.50;16.60;;;15.90;99.90;;;;;;5041404;28;20095;-72
2023/05/11 07:00:07;;;;;;;32.00;16.52;;;16.00;99.90;;;;;;5064459;28;20461;-71
2023/05/11 07:02:33;;;;;;;22.17;13.52;;;16.00;99.90;;;;;;5072513;28;20477;-74
2023/05/11 07:04:59;;;;;;;29.98;15.55;;;16.00;99.90;;;;;;5033281;28;20067;-75
2023/05/11 07:07:24;;;;;;;32.15;16.20;;;16.00;99.90;;;;;;5044272;28;20479;-75
2023/05/11 07:09:50;;;;;;;31.50;17.05;;;16.00;99.90;;;;;;5052160;28;20027;-74
2023/05/11 07:12:15;;;;;;;35.63;16.13;;;16.00;99.90;;;;;;5036374;28;20076;-74
2023/05/11 07:14:41;;;;;;;34.40;16.70;;;16.00;99.90;;;;;;5033054;28;20036;-74
2023/05/11 07:17:07;;;;;;;33.28;17.48;;;16.00;99.90;;;;;;5047194;28;20044;-74
2023/05/11 07:19:32;;;;;;;30.92;16.83;;;16.00;99.90;;;;;;5071661;28;20043;-75
2023/05/11 07:21:58;;;;;;;31.73;16.70;;;16.00;99.90;;;;;;5067486;28;20028;-75
2023/05/11 07:24:24;;;;;;;28.77;16.88;;;16.00;99.90;;;;;;5046797;28;20033;-75
2023/05/11 07:26:50;;;;;;;29.15;17.33;;;16.00;99.90;;;;;;5047509;28;20040;-76
2023/05/11 07:29:16;;;;;;;32.88;17.63;;;16.00;99.90;;;;;;5050935;28;20119;-75
2023/05/11 07:31:42;;;;;;;25.85;16.85;;;16.00;99.90;;;;;;5040524;28;20025;-75
2023/05/11 07:34:07;;;;;;;29.20;18.05;;;16.00;99.90;;;;;;5033423;28;20117;-73
2023/05/11 07:36:33;;;;;;;28.65;16.67;;;16.00;99.90;;;;;;5048910;28;20029;-74
2023/05/11 07:39:00;;;;;;;29.20;16.52;;;16.00;99.90;;;;;;5064399;28;20033;-74
2023/05/11 07:41:28;;;;;;;30.02;17.15;;;16.00;99.90;;;;;;5067399;28;20022;-74
2023/05/11 07:43:54;;;;;;;29.23;15.75;;;16.00;99.90;;;;;;5072844;28;20028;-74
2023/05/11 07:46:20;;;;;;;24.40;15.88;;;16.10;99.90;;;;;;5043980;28;20048;-74
2023/05/11 07:48:45;;;;;;;27.45;15.18;;;16.10;99.90;;;;;;5045467;28;20029;-74
2023/05/11 07:51:11;;;;;;;30.05;16.42;;;16.10;99.90;;;;;;5040513;28;20022;-74
2023/05/11 07:53:37;;;;;;;26.63;15.45;;;16.10;99.90;;;;;;5036655;28;20022;-74
2023/05/11 07:56:03;;;;;;;27.58;15.85;;;16.10;99.90;;;;;;5036696;28;20034;-77
2023/05/11 07:58:29;;;;;;;24.25;16.40;;;16.20;99.90;;;;;;5035318;28;20037;-77
2023/05/11 08:00:56;;;;;;;28.45;14.88;;;16.20;99.90;;;;;;5042947;28;20103;-71
2023/05/11 08:03:21;;;;;;;29.55;16.52;;;16.20;99.90;;;;;;5047946;28;20723;-76
2023/05/11 08:05:47;;;;;;;29.00;16.65;;;16.20;99.90;;;;;;5050638;28;20514;-76
2023/05/11 08:08:14;;;;;;;26.35;15.07;;;16.20;99.90;;;;;;5051121;28;20017;-76
2023/05/11 08:10:40;;;;;;;25.08;14.25;;;16.30;99.90;;;;;;5040181;28;20017;-77
2023/05/11 08:13:06;;;;;;;24.02;15.43;;;16.30;99.90;;;;;;5036301;28;20045;-79
2023/05/11 08:15:32;;;;;;;23.70;15.27;;;16.40;99.90;;;;;;5038047;28;20017;-76
2023/05/11 08:17:59;;;;;;;25.02;15.43;;;16.40;99.90;;;;;;5043386;28;20038;-77
2023/05/11 08:20:25;;;;;;;21.63;14.07;;;16.40;99.90;;;;;;5038081;28;20032;-77
2023/05/11 08:22:51;;;;;;;23.17;15.38;;;16.40;99.90;;;;;;5056514;28;20033;-76
2023/05/11 08:25:16;;;;;;;24.90;15.90;;;16.50;99.90;;;;;;5048753;28;20078;-76
2023/05/11 08:27:42;;;;;;;23.10;15.20;;;16.50;99.90;;;;;;5035898;28;20060;-75
2023/05/11 08:30:08;;;;;;;25.08;14.75;;;16.50;99.90;;;;;;5042140;28;20039;-76
2023/05/11 08:32:35;;;;;;;22.40;14.00;;;16.50;99.90;;;;;;5050062;28;20432;-76
2023/05/11 08:35:02;;;;;;;24.77;13.88;;;16.50;99.90;;;;;;5040338;28;20029;-76
2023/05/11 08:37:28;;;;;;;19.48;12.57;;;16.60;99.90;;;;;;5035451;28;20034;-75
2023/05/11 08:39:54;;;;;;;22.70;12.75;;;16.60;99.90;;;;;;5051941;28;20033;-76
2023/05/11 08:42:22;;;;;;;19.30;11.60;;;16.60;99.90;;;;;;5042434;28;20045;-77
2023/05/11 08:44:49;;;;;;;24.27;12.40;;;16.60;99.90;;;;;;5035117;28;20021;-77
2023/05/11 08:47:14;;;;;;;26.73;13.13;;;16.60;99.90;;;;;;5042271;28;20017;-71
2023/05/11 08:49:40;;;;;;;32.67;12.35;;;16.60;99.90;;;;;;5051174;28;20386;-73
2023/05/11 08:52:06;;;;;;;29.58;13.25;;;16.70;99.90;;;;;;5037356;28;20037;-73
2023/05/11 08:54:32;;;;;;;27.17;12.80;;;16.70;99.90;;;;;;5039009;28;20489;-73
2023/05/11 08:56:58;;;;;;;27.58;11.73;;;16.70;99.90;;;;;;5042046;28;20065;-73
2023/05/11 08:59:28;;;;;;;22.70;10.85;;;16.80;99.90;;;;;;5041947;28;20033;-74
2023/05/11 09:01:56;;;;;;;26.90;11.07;;;16.80;99.90;;;;;;5052150;28;20013;-73
2023/05/11 09:04:23;;;;;;;25.23;12.48;;;16.80;99.90;;;;;;5035186;28;20037;-73
2023/05/11 09:06:50;;;;;;;24.98;12.82;;;16.80;99.90;;;;;;5044809;28;20048;-72
2023/05/11 09:09:17;;;;;;;22.58;12.43;;;16.80;99.90;;;;;;5039717;28;20481;-72
2023/05/11 09:11:44;;;;;;;24.40;13.18;;;16.90;99.90;;;;;;5036050;28;20021;-72
2023/05/11 09:14:09;;;;;;;24.45;11.57;;;16.90;99.90;;;;;;5035109;28;20147;-72
2023/05/11 09:16:35;;;;;;;22.88;14.75;;;16.90;99.90;;;;;;5033849;28;20108;-72
2023/05/11 09:19:01;;;;;;;26.85;15.18;;;16.90;99.90;;;;;;5038612;28;20458;-71
2023/05/11 09:21:28;;;;;;;28.80;14.88;;;17.00;99.90;;;;;;5044012;28;20033;-73
2023/05/11 09:23:55;;;;;;;26.42;14.98;;;17.00;99.90;;;;;;5045827;28;20525;-72
2023/05/11 09:26:25;;;;;;;53.53;15.10;;;17.00;99.90;;;;;;5050616;28;20113;-70
2023/05/11 09:28:59;;;;;;;45.22;15.05;;;17.10;99.90;;;;;;5052140;28;20065;-74
2023/05/11 09:31:39;;;;;;;46.40;14.15;;;17.10;99.90;;;;;;5042601;28;20479;-78
2023/05/11 09:34:21;;;;;;;38.70;15.43;;;17.10;99.90;;;;;;5045196;28;20487;-71
2023/05/11 09:36:52;;;;;;;30.95;15.27;;;17.10;99.90;;;;;;5039867;28;20029;-71
2023/05/11 09:39:27;;;;;;;25.77;14.25;;;17.10;99.90;;;;;;5054537;28;20048;-71
2023/05/11 09:42:17;;;;;;;29.55;15.18;;;17.20;99.90;;;;;;5054480;28;20399;-71
2023/05/11 09:44:44;;;;;;;30.38;13.73;;;17.20;99.80;;;;;;5038125;28;20032;-71
2023/05/11 09:47:18;;;;;;;26.33;14.02;;;17.20;99.90;;;;;;5040673;28;20026;-71
2023/05/11 09:49:46;;;;;;;24.90;14.38;;;17.20;99.90;;;;;;5047193;28;20021;-70
2023/05/11 09:52:16;;;;;;;41.50;15.00;;;17.30;99.90;;;;;;5036663;28;21158;-72
2023/05/11 09:54:46;;;;;;;34.63;15.77;;;17.30;99.90;;;;;;5051636;28;20478;-69
2023/05/11 09:57:21;;;;;;;33.13;15.07;;;17.30;99.90;;;;;;5041304;28;20120;-72
2023/05/11 09:59:47;;;;;;;31.42;15.30;;;17.40;99.90;;;;;;5053417;28;20035;-73
2023/05/11 10:02:27;;;;;;;28.95;15.10;;;17.40;99.90;;;;;;5054512;28;20029;-69
2023/05/11 10:04:54;;;;;;;30.67;15.57;;;17.40;99.90;;;;;;5054055;28;20389;-71
2023/05/11 10:07:25;;;;;;;28.90;14.20;;;17.40;99.90;;;;;;5053165;28;20033;-69
2023/05/11 10:09:56;;;;;;;35.88;15.70;;;17.40;99.90;;;;;;5052721;28;20024;-71
2023/05/11 10:12:24;;;;;;;31.45;15.15;;;17.40;99.90;;;;;;5035332;28;20455;-70
2023/05/11 10:14:53;;;;;;;27.75;15.38;;;17.50;99.90;;;;;;5047408;28;20057;-69
2023/05/11 10:17:20;;;;;;;29.00;16.33;;;17.50;99.90;;;;;;5053696;28;20108;-71
2023/05/11 10:19:47;;;;;;;24.35;15.27;;;17.50;99.90;;;;;;5052717;28;20599;-69
2023/05/11 10:22:14;;;;;;;24.63;16.10;;;17.50;99.90;;;;;;5053746;28;20392;-72
2023/05/11 10:24:40;;;;;;;28.77;17.23;;;17.60;99.90;;;;;;5053716;28;20412;-69
2023/05/11 10:27:06;;;;;;;26.90;16.30;;;17.60;99.90;;;;;;5053516;28;20037;-71
2023/05/11 10:29:33;;;;;;;42.05;18.15;;;17.60;99.90;;;;;;5047358;28;20032;-75
2023/05/11 10:32:01;;;;;;;26.13;17.33;;;17.60;99.90;;;;;;5047727;28;20490;-75
2023/05/11 10:34:28;;;;;;;21.58;15.85;;;17.60;99.90;;;;;;5051900;28;20496;-75
2023/05/11 10:36:56;;;;;;;30.52;16.77;;;17.60;99.00;;;;;;5049929;28;21230;-70
2023/05/11 10:39:22;;;;;;;34.72;17.88;;;17.70;99.10;;;;;;5034244;28;20038;-70
2023/05/11 10:42:05;;;;;;;35.72;18.15;;;17.70;99.70;;;;;;5033225;28;20017;-71
2023/05/11 10:44:47;;;;;;;26.48;17.30;;;17.80;98.90;;;;;;5036577;28;20068;-73
2023/05/11 10:47:37;;;;;;;29.38;17.67;;;17.80;98.30;;;;;;5047435;28;20021;-65
2023/05/11 10:50:30;;;;;;;51.97;18.50;;;17.80;97.60;;;;;;5044000;28;20078;-68
2023/05/11 10:53:07;;;;;;;;;;;17.80;99.30;;;;;;5053162;28;20115;-67
2023/05/11 10:55:59;;;;;;;31.20;17.73;;;17.80;98.60;;;;;;5047812;28;19912;-67
2023/05/11 10:58:43;;;;;;;28.83;17.40;;;17.90;99.10;;;;;;5039808;28;20041;-69
2023/05/11 11:01:27;;;;;;;26.25;15.88;;;17.90;97.90;;;;;;5048933;28;20028;-68
2023/05/11 11:04:03;;;;;;;26.38;16.38;;;17.90;98.90;;;;;;5051867;28;20071;-67
2023/05/11 11:06:30;;;;;;;23.45;15.23;;;17.90;98.90;;;;;;5050283;28;20056;-67
2023/05/11 11:09:04;;;;;;;22.85;14.82;;;17.90;99.00;;;;;;5052334;28;20497;-67
2023/05/11 11:11:49;;;;;;;19.80;14.85;;;18.00;98.90;;;;;;5042666;28;20086;-67
2023/05/11 11:14:18;;;;;;;21.85;15.50;;;18.00;98.70;;;;;;5052422;28;20433;-67
2023/05/11 11:17:15;;;;;;;28.85;17.65;;;18.00;98.40;;;;;;5041347;28;20143;-66
2023/05/11 11:19:41;;;;;;;26.92;17.45;;;18.00;98.30;;;;;;5020856;28;20058;-67
2023/05/11 11:22:40;;;;;;;26.13;18.88;;;18.10;98.40;;;;;;5031906;28;20108;-68
2023/05/11 11:25:07;;;;;;;27.95;16.77;;;18.10;98.30;;;;;;5033397;28;20375;-71
2023/05/11 11:27:39;;;;;;;23.40;16.00;;;18.10;98.30;;;;;;5039904;28;20379;-70
2023/05/11 11:30:27;;;;;;;23.92;17.48;;;18.10;98.40;;;;;;5039126;28;20107;-68
2023/05/11 11:33:14;;;;;;;22.60;16.08;;;18.10;98.50;;;;;;5036286;28;20030;-69
2023/05/11 11:35:43;;;;;;;24.52;16.42;;;18.10;98.50;;;;;;5038649;28;20024;-69
2023/05/11 11:38:14;;;;;;;26.48;17.25;;;18.20;98.60;;;;;;5048314;28;20028;-68
2023/05/11 11:40:50;;;;;;;30.52;17.52;;;18.20;98.60;;;;;;5044465;28;20083;-72
2023/05/11 11:43:22;;;;;;;30.30;19.73;;;18.30;98.60;;;;;;5035838;28;20363;-69
2023/05/11 11:46:01;;;;;;;25.88;20.20;;;18.20;98.80;;;;;;5039254;28;20746;-69
2023/05/11 11:48:39;;;;;;;27.67;19.02;;;18.30;98.50;;;;;;5042624;28;20037;-71
2023/05/11 11:51:09;;;;;;;25.08;18.55;;;18.30;98.30;;;;;;5040385;28;20021;-71
2023/05/11 11:53:36;;;;;;;29.55;22.25;;;18.30;98.40;;;;;;5041338;28;20386;-70
2023/05/11 11:56:25;;;;;;;28.13;22.25;;;18.40;97.80;;;;;;5036661;28;20025;-66
2023/05/11 11:58:50;;;;;;;25.92;19.30;;;18.40;97.00;;;;;;5038924;28;20464;-71
2023/05/11 12:01:25;;;;;;;21.85;14.40;;;18.40;97.10;;;;;;5043852;28;20025;-70
2023/05/11 12:04:03;;;;;;;22.02;16.75;;;18.50;95.10;;;;;;5032440;28;20108;-71
2023/05/11 12:06:38;;;;;;;20.23;14.07;;;18.50;97.80;;;;;;5040779;28;20389;-69
2023/05/11 12:09:04;;;;;;;18.10;13.27;;;18.50;96.10;;;;;;5042218;28;20025;-69
2023/05/11 12:11:31;;;;;;;17.60;12.30;;;18.50;95.40;;;;;;5040754;28;20087;-69
2023/05/11 12:13:59;;;;;;;15.77;12.00;;;18.50;95.60;;;;;;5041646;28;20487;-69
2023/05/11 12:16:25;;;;;;;16.90;11.80;;;18.50;96.10;;;;;;5038557;28;20049;-67
2023/05/11 12:18:56;;;;;;;15.95;12.10;;;18.50;96.00;;;;;;5035907;28;20060;-66
2023/05/11 12:21:23;;;;;;;15.60;11.18;;;18.50;95.90;;;;;;5045522;28;20474;-68
2023/05/11 12:23:56;;;;;;;18.33;10.90;;;18.60;96.10;;;;;;5039553;28;20489;-69
2023/05/11 12:26:24;;;;;;;15.43;10.98;;;18.60;96.10;;;;;;5045471;28;20029;-68
2023/05/11 12:28:50;;;;;;;12.70;9.10;;;18.60;96.00;;;;;;5046287;28;20113;-68
2023/05/11 12:31:17;;;;;;;15.57;9.15;;;18.60;95.50;;;;;;5043272;28;20024;-67
2023/05/11 12:33:46;;;;;;;12.18;8.30;;;18.60;96.50;;;;;;5053514;28;20062;-68
2023/05/11 12:36:14;;;;;;;13.98;9.10;;;18.60;95.80;;;;;;5051139;28;20043;-69
2023/05/11 12:38:47;;;;;;;13.05;7.63;;;18.60;96.40;;;;;;5045267;28;20043;-70